Time;durP1;ratioP1;P1;durP2;ratioP2;P2;SDS_P1;SDS_P2;PMS_P1;PMS_P2;Temp;Humidity;BMP_temperature;BMP_pressure;BME280_temperature;BME280_humidity;BME280_pressure;Samples;Min_cycle;Max_cycle;Signal;HPM_P1;HPM_P2
2023/10/08 00:00:53;;;;;;;100.53;96.07;;;13.60;96.80;;;;;;5050349;28;20397;-71
2023/10/08 00:03:20;;;;;;;71.63;68.53;;;13.60;96.90;;;;;;5041244;28;20295;-71
2023/10/08 00:05:46;;;;;;;81.37;77.87;;;13.60;97.20;;;;;;5052619;28;20382;-71
2023/10/08 00:08:14;;;;;;;96.93;92.87;;;13.50;97.30;;;;;;5046202;28;20291;-72
2023/10/08 00:10:44;;;;;;;68.80;66.07;;;13.60;97.50;;;;;;5044184;28;20770;-72
2023/10/08 00:13:15;;;;;;;86.47;82.67;;;13.60;97.50;;;;;;5032461;28;20703;-72
2023/10/08 00:15:52;;;;;;;85.67;82.03;;;13.50;97.70;;;;;;5037857;28;20294;-71
2023/10/08 00:18:19;;;;;;;79.40;76.17;;;13.50;97.80;;;;;;5044629;28;20279;-71
2023/10/08 00:23:30;;;;;;;80.90;77.53;;;13.40;97.60;;;;;;5049314;28;20291;-72
2023/10/08 00:25:57;;;;;;;74.70;71.67;;;13.30;97.70;;;;;;5044502;28;20374;-72
2023/10/08 00:28:24;;;;;;;64.53;61.90;;;13.30;97.70;;;;;;5048745;28;20321;-72
2023/10/08 00:30:50;;;;;;;78.37;75.17;;;13.30;97.90;;;;;;5026319;28;20295;-72
2023/10/08 00:33:16;;;;;;;73.17;70.17;;;13.30;97.90;;;;;;5044902;28;20286;-71
2023/10/08 00:35:42;;;;;;;79.63;76.37;;;13.30;97.80;;;;;;5042656;28;20048;-71
2023/10/08 00:38:14;;;;;;;76.43;73.00;;;13.30;97.90;;;;;;5047668;28;20329;-71
2023/10/08 00:40:46;;;;;;;84.77;81.07;;;13.20;97.90;;;;;;5031303;28;20047;-72
2023/10/08 00:43:35;;;;;;;73.10;70.00;;;13.30;97.90;;;;;;5043380;28;20286;-72
2023/10/08 00:46:08;;;;;;;69.20;66.10;;;13.20;97.80;;;;;;5031760;28;20642;-71
2023/10/08 00:48:37;;;;;;;79.53;76.23;;;13.20;97.90;;;;;;5047306;28;20778;-72
2023/10/08 00:51:25;;;;;;;69.90;67.03;;;13.20;97.90;;;;;;5034670;28;20798;-72
2023/10/08 00:53:59;;;;;;;60.63;58.13;;;13.20;97.80;;;;;;5044433;28;20311;-72
2023/10/08 00:59:15;;;;;;;59.73;57.30;;;13.10;98.00;;;;;;5040525;28;20284;-72
2023/10/08 01:02:05;;;;;;;60.43;57.83;;;13.10;97.80;;;;;;5032593;28;20397;-72
2023/10/08 01:04:34;;;;;;;62.77;60.17;;;13.10;97.80;;;;;;5050830;28;20294;-72
2023/10/08 01:07:16;;;;;;;52.60;50.33;;;13.10;98.00;;;;;;5044684;28;20311;-72
2023/10/08 01:09:42;;;;;;;83.83;80.37;;;13.10;98.00;;;;;;5038270;28;20399;-72
2023/10/08 01:12:23;;;;;;;55.03;52.70;;;13.10;98.00;;;;;;5024843;28;20351;-72
2023/10/08 01:14:53;;;;;;;56.47;54.13;;;13.10;98.10;;;;;;5025952;28;20294;-72
2023/10/08 01:17:26;;;;;;;65.33;62.40;;;13.10;98.10;;;;;;5042852;28;20279;-72
2023/10/08 01:20:09;;;;;;;60.27;57.73;;;13.10;98.20;;;;;;5041249;28;20338;-72
2023/10/08 01:22:38;;;;;;;89.43;85.63;;;13.10;98.10;;;;;;5031541;28;20356;-72
2023/10/08 01:25:05;;;;;;;77.33;74.13;;;13.10;98.30;;;;;;5028086;28;20631;-73
2023/10/08 01:27:34;;;;;;;90.67;86.90;;;13.10;98.40;;;;;;5041495;28;20290;-72
2023/10/08 01:30:20;;;;;;;74.20;70.80;;;13.10;98.30;;;;;;5046488;28;20603;-72
2023/10/08 01:32:45;;;;;;;81.93;78.50;;;13.10;98.30;;;;;;5033092;28;20294;-72
2023/10/08 01:35:23;;;;;;;85.60;81.83;;;13.10;98.20;;;;;;5040733;28;20051;-72
2023/10/08 01:37:55;;;;;;;64.77;61.93;;;13.10;98.10;;;;;;5046417;28;20033;-72
2023/10/08 01:40:21;;;;;;;106.90;102.37;;;13.10;98.10;;;;;;5044094;28;20298;-72
2023/10/08 01:42:51;;;;;;;95.23;91.40;;;13.20;98.00;;;;;;5025997;28;20649;-72
2023/10/08 01:45:18;;;;;;;91.00;87.27;;;13.20;98.10;;;;;;5043410;28;20067;-72
2023/10/08 01:47:44;;;;;;;59.63;57.10;;;13.20;98.00;;;;;;5026511;28;20641;-72
2023/10/08 01:50:21;;;;;;;58.50;56.20;;;13.20;98.10;;;;;;5044869;28;20295;-72
2023/10/08 01:52:52;;;;;;;95.17;91.20;;;13.20;98.10;;;;;;5045966;28;20278;-72
2023/10/08 01:55:19;;;;;;;66.60;63.70;;;13.20;98.00;;;;;;5033741;28;20715;-72
2023/10/08 01:57:49;;;;;;;82.23;78.73;;;13.20;97.90;;;;;;5039699;28;20323;-72
2023/10/08 02:00:26;;;;;;;69.20;66.33;;;13.20;97.80;;;;;;5044114;28;20349;-72
2023/10/08 02:02:59;;;;;;;88.03;84.47;;;13.20;97.80;;;;;;5046088;28;20298;-72
2023/10/08 02:05:25;;;;;;;106.23;101.80;;;13.20;97.80;;;;;;5043295;28;20283;-73
2023/10/08 02:07:51;;;;;;;99.17;95.20;;;13.20;97.70;;;;;;5042093;28;20287;-72
2023/10/08 02:10:16;;;;;;;106.43;102.13;;;13.20;97.60;;;;;;5039703;28;20317;-72
2023/10/08 02:12:42;;;;;;;77.00;73.70;;;13.20;97.60;;;;;;5021251;28;20058;-72
2023/10/08 02:15:11;;;;;;;83.57;80.03;;;13.20;97.70;;;;;;5049342;28;20037;-72
2023/10/08 02:17:38;;;;;;;79.63;76.30;;;13.20;97.60;;;;;;5048167;28;20045;-72
2023/10/08 02:20:05;;;;;;;99.77;95.70;;;13.30;97.60;;;;;;5049856;28;20310;-72
2023/10/08 02:22:32;;;;;;;101.27;97.13;;;13.20;97.60;;;;;;5052184;28;20414;-72
2023/10/08 02:25:01;;;;;;;99.30;95.30;;;13.20;97.60;;;;;;5030741;28;20298;-72
2023/10/08 02:27:28;;;;;;;159.70;153.17;;;13.20;97.50;;;;;;5051374;28;20616;-72
2023/10/08 02:29:55;;;;;;;107.60;103.13;;;13.30;97.60;;;;;;5032809;28;20331;-72
2023/10/08 02:32:24;;;;;;;107.03;102.70;;;13.30;97.60;;;;;;5050921;28;20348;-72
2023/10/08 02:34:50;;;;;;;97.17;93.30;;;13.30;97.60;;;;;;5048855;28;20301;-72
2023/10/08 02:37:16;;;;;;;110.80;106.33;;;13.30;97.60;;;;;;5056242;28;20844;-72
2023/10/08 02:39:42;;;;;;;102.53;98.03;;;13.30;97.60;;;;;;5034924;28;20314;-71
2023/10/08 02:42:10;;;;;;;96.90;92.93;;;13.30;97.60;;;;;;5023468;28;20341;-71
2023/10/08 02:44:41;;;;;;;108.47;103.93;;;13.30;97.60;;;;;;5045995;28;20326;-71
2023/10/08 02:47:11;;;;;;;56.33;53.97;;;13.30;97.60;;;;;;5054482;28;20289;-72
2023/10/08 02:49:40;;;;;;;88.60;84.80;;;13.30;97.70;;;;;;5049093;28;20379;-72
2023/10/08 02:52:08;;;;;;;93.63;89.90;;;13.30;97.60;;;;;;5048687;28;20316;-72
2023/10/08 02:54:36;;;;;;;87.30;83.57;;;13.30;97.70;;;;;;5037368;28;20627;-72
2023/10/08 02:57:09;;;;;;;112.90;108.27;;;13.30;97.60;;;;;;5045524;28;20782;-72
2023/10/08 02:59:42;;;;;;;46.97;44.73;;;13.30;97.60;;;;;;5023502;28;20305;-72
2023/10/08 03:02:18;;;;;;;86.63;82.73;;;13.30;97.50;;;;;;5024750;28;20291;-72
2023/10/08 03:04:45;;;;;;;78.10;74.80;;;13.40;97.50;;;;;;5035127;28;20623;-72
2023/10/08 03:07:32;;;;;;;60.37;57.87;;;13.30;97.40;;;;;;5034572;28;20286;-72
2023/10/08 03:10:05;;;;;;;69.90;66.93;;;13.30;97.30;;;;;;5049806;28;20299;-72
2023/10/08 03:12:32;;;;;;;97.83;93.80;;;13.30;97.20;;;;;;5031634;28;21043;-72
2023/10/08 03:15:14;;;;;;;71.90;68.90;;;13.30;97.10;;;;;;5047099;28;20794;-72
2023/10/08 03:17:48;;;;;;;76.00;72.93;;;13.30;97.10;;;;;;5053925;28;20313;-72
2023/10/08 03:20:29;;;;;;;60.30;57.50;;;13.30;97.10;;;;;;5051697;28;20306;-72
2023/10/08 03:22:59;;;;;;;65.10;62.17;;;13.30;97.00;;;;;;5050684;28;20173;-72
2023/10/08 03:25:26;;;;;;;77.07;73.67;;;13.30;96.80;;;;;;5062815;28;20765;-72
2023/10/08 03:27:54;;;;;;;83.17;79.60;;;13.30;96.90;;;;;;5054325;28;20315;-72
2023/10/08 03:30:20;;;;;;;75.70;72.43;;;13.30;96.90;;;;;;5035944;28;20344;-71
2023/10/08 03:32:55;;;;;;;87.47;83.87;;;13.30;96.80;;;;;;5026476;28;20685;-72
2023/10/08 03:35:27;;;;;;;97.57;93.57;;;13.30;96.90;;;;;;5048279;28;20315;-72
2023/10/08 03:37:54;;;;;;;122.33;117.30;;;13.30;96.80;;;;;;5029636;28;20279;-72
2023/10/08 03:42:55;;;;;;;73.20;70.07;;;13.30;96.80;;;;;;5049294;28;20279;-72
2023/10/08 03:48:08;;;;;;;87.57;84.00;;;13.30;96.80;;;;;;5050788;28;20639;-72
2023/10/08 03:50:41;;;;;;;83.20;79.50;;;13.30;96.80;;;;;;5035885;28;20416;-72
2023/10/08 03:53:11;;;;;;;38.77;36.97;;;13.30;96.70;;;;;;5051397;28;20279;-72
2023/10/08 03:55:40;;;;;;;73.07;70.03;;;13.30;96.80;;;;;;5035521;28;20650;-72
2023/10/08 03:58:11;;;;;;;53.13;50.77;;;13.30;96.80;;;;;;5047810;28;20322;-72
2023/10/08 04:00:41;;;;;;;128.07;122.57;;;13.30;96.80;;;;;;5026158;28;20334;-72
2023/10/08 04:03:11;;;;;;;76.27;72.87;;;13.30;96.80;;;;;;5029645;28;20354;-72
2023/10/08 04:05:44;;;;;;;87.00;83.37;;;13.30;96.90;;;;;;5048205;28;20811;-72
2023/10/08 04:08:42;;;;;;;150.60;144.43;;;13.30;97.00;;;;;;5041564;28;20291;-72
2023/10/08 04:12:11;;;;;;;95.47;91.50;;;13.30;96.90;;;;;;5048078;28;20299;-72
2023/10/08 04:14:04;;;;;;;108.47;104.00;;;13.30;96.90;;;;;;5031012;28;20297;-72
2023/10/08 04:16:37;;;;;;;200.47;192.13;;;13.30;97.00;;;;;;5033807;28;20325;-72
2023/10/08 04:19:07;;;;;;;187.03;179.50;;;13.30;97.10;;;;;;5041984;28;20848;-71
2023/10/08 04:21:33;;;;;;;107.90;103.27;;;13.30;97.10;;;;;;5031731;28;20298;-72
2023/10/08 04:24:08;;;;;;;192.33;184.43;;;13.20;96.90;;;;;;5052145;28;20356;-72
2023/10/08 04:26:34;;;;;;;95.05;90.97;;;13.20;97.10;;;;;;5033507;28;20313;-72
2023/10/08 04:29:06;;;;;;;66.23;63.33;;;13.30;96.90;;;;;;5032686;28;20032;-72
2023/10/08 04:31:44;;;;;;;94.50;90.43;;;13.30;97.00;;;;;;5046825;28;20374;-71
2023/10/08 04:34:16;;;;;;;81.47;78.07;;;13.30;97.00;;;;;;5052418;28;20286;-72
2023/10/08 04:36:45;;;;;;;85.47;81.67;;;13.30;96.90;;;;;;5051707;28;20297;-71
2023/10/08 04:39:21;;;;;;;83.20;79.47;;;13.30;96.90;;;;;;5025695;28;20290;-72
2023/10/08 04:41:49;;;;;;;80.03;76.53;;;13.30;96.90;;;;;;5034741;28;20306;-72
2023/10/08 04:44:16;;;;;;;57.33;54.50;;;13.30;96.90;;;;;;5046886;28;20843;-72
2023/10/08 04:49:26;;;;;;;91.37;87.60;;;13.30;96.80;;;;;;5047707;28;20869;-72
2023/10/08 04:52:13;;;;;;;65.40;62.40;;;13.30;96.80;;;;;;5046602;28;20689;-72
2023/10/08 04:54:40;;;;;;;45.40;43.23;;;13.20;96.70;;;;;;5031060;28;20292;-72
2023/10/08 04:57:14;;;;;;;72.13;68.83;;;13.20;96.70;;;;;;5047628;28;20283;-72
2023/10/08 04:59:41;;;;;;;65.75;62.75;;;13.20;96.80;;;;;;5047994;28;20381;-72
2023/10/08 05:02:19;;;;;;;89.10;85.33;;;13.30;96.70;;;;;;5046756;28;20044;-72
2023/10/08 05:07:21;;;;;;;193.57;185.53;;;13.20;96.70;;;;;;5044394;28;20378;-72
2023/10/08 05:12:37;;;;;;;157.17;150.80;;;13.20;96.70;;;;;;5042085;28;20311;-72
2023/10/08 05:20:29;;;;;;;172.43;164.93;;;13.20;96.60;;;;;;5038723;28;20349;-72
2023/10/08 05:23:05;;;;;;;172.10;164.77;;;13.20;96.50;;;;;;5031381;28;20290;-72
2023/10/08 05:25:57;;;;;;;166.57;159.63;;;13.20;96.40;;;;;;5041813;28;20303;-72
2023/10/08 05:28:26;;;;;;;155.73;149.20;;;13.20;96.30;;;;;;5048465;28;20831;-72
2023/10/08 05:39:55;;;;;;;180.27;172.83;;;13.10;96.10;;;;;;5041882;28;20291;-72
2023/10/08 05:41:52;;;;;;;206.27;197.77;;;13.10;96.20;;;;;;5025867;28;20815;-72
2023/10/08 05:46:51;;;;;;;205.67;197.17;;;13.10;96.20;;;;;;5046430;28;20368;-72
2023/10/08 05:50:28;;;;;;;238.70;228.97;;;13.10;96.20;;;;;;5043739;28;20331;-72
2023/10/08 05:57:07;;;;;;;272.37;260.87;;;13.10;96.30;;;;;;5046290;28;20052;-74
2023/10/08 06:00:17;;;;;;;271.13;259.85;;;13.10;96.30;;;;;;5049247;28;20309;-73
2023/10/08 06:03:00;;;;;;;252.00;241.33;;;13.10;96.20;;;;;;5047037;28;20185;-73
2023/10/08 06:05:32;;;;;;;264.03;253.03;;;13.00;96.30;;;;;;5047207;28;20353;-73
2023/10/08 06:08:11;;;;;;;274.27;262.90;;;13.00;96.50;;;;;;5039228;28;20290;-74
2023/10/08 06:13:09;;;;;;;244.63;234.37;;;13.00;96.50;;;;;;5049937;28;20786;-73
2023/10/08 06:18:19;;;;;;;232.37;222.73;;;13.00;96.70;;;;;;5051563;28;20783;-73
2023/10/08 06:20:49;;;;;;;219.17;209.97;;;13.00;96.70;;;;;;5049766;28;20872;-73
2023/10/08 06:23:20;;;;;;;239.97;230.17;;;13.00;96.70;;;;;;5046097;28;20530;-73
2023/10/08 06:25:46;;;;;;;241.27;230.97;;;13.00;96.60;;;;;;5046970;28;20778;-73
2023/10/08 06:28:20;;;;;;;222.37;212.77;;;13.00;96.50;;;;;;5050832;28;20290;-73
2023/10/08 06:30:47;;;;;;;212.97;204.03;;;13.10;96.50;;;;;;5041917;28;20287;-73
2023/10/08 06:33:14;;;;;;;220.97;211.57;;;13.10;96.60;;;;;;5067287;28;20291;-73
2023/10/08 06:35:44;;;;;;;196.20;188.07;;;13.00;96.50;;;;;;5035514;28;20360;-73
2023/10/08 06:38:11;;;;;;;244.87;234.53;;;13.00;96.60;;;;;;5047388;28;20318;-72
2023/10/08 06:43:14;;;;;;;217.47;207.90;;;13.10;96.60;;;;;;5044457;28;20298;-73
2023/10/08 06:45:41;;;;;;;217.17;208.30;;;13.10;96.60;;;;;;5032045;28;20793;-73
2023/10/08 06:48:09;;;;;;;206.70;198.27;;;13.00;96.40;;;;;;5031500;28;20630;-73
2023/10/08 06:50:38;;;;;;;208.63;199.80;;;13.10;96.40;;;;;;5041577;28;20346;-74
2023/10/08 06:53:07;;;;;;;232.27;222.50;;;13.10;96.40;;;;;;5044300;28;20801;-73
2023/10/08 06:55:37;;;;;;;245.43;235.37;;;13.10;96.40;;;;;;5049908;28;20794;-73
2023/10/08 06:58:11;;;;;;;225.87;216.57;;;13.10;96.30;;;;;;5045789;28;20658;-73
2023/10/08 07:00:46;;;;;;;246.53;236.33;;;13.10;96.30;;;;;;5052766;28;20863;-73
2023/10/08 07:03:15;;;;;;;258.95;248.02;;;13.20;96.40;;;;;;5050348;28;20803;-73
2023/10/08 07:08:42;;;;;;;247.00;236.43;;;13.30;96.60;;;;;;5036022;28;20876;-73
2023/10/08 07:11:08;;;;;;;194.70;186.37;;;13.40;96.50;;;;;;5047523;28;20289;-73
2023/10/08 07:13:35;;;;;;;154.93;147.90;;;13.50;96.60;;;;;;5036140;28;20298;-74
2023/10/08 07:16:04;;;;;;;172.70;165.43;;;13.50;96.50;;;;;;5049885;28;20283;-73
2023/10/08 07:18:33;;;;;;;232.40;222.67;;;13.60;96.40;;;;;;5047037;28;20802;-74
2023/10/08 07:21:11;;;;;;;241.87;231.70;;;13.60;96.30;;;;;;5034292;28;20420;-73
2023/10/08 07:23:55;;;;;;;251.43;241.20;;;13.70;96.10;;;;;;5031634;28;20287;-73
2023/10/08 07:26:36;;;;;;;214.27;205.43;;;13.70;96.10;;;;;;5037226;28;20289;-73
2023/10/08 07:29:08;;;;;;;228.90;219.73;;;13.70;96.10;;;;;;5052800;28;20421;-73
2023/10/08 07:31:36;;;;;;;230.73;221.40;;;13.80;95.90;;;;;;5049545;28;20323;-73
2023/10/08 07:34:18;;;;;;;235.57;225.20;;;13.80;95.80;;;;;;5036823;28;20335;-73
2023/10/08 07:36:49;;;;;;;206.73;197.87;;;13.90;95.90;;;;;;5032190;28;20655;-73
2023/10/08 07:41:50;;;;;;;223.17;213.93;;;13.90;94.70;;;;;;5042515;28;20310;-73
2023/10/08 07:44:21;;;;;;;215.77;206.67;;;13.90;93.10;;;;;;5051261;28;20348;-73
2023/10/08 07:46:51;;;;;;;157.10;150.47;;;13.90;93.40;;;;;;5033691;28;20295;-73
2023/10/08 07:49:17;;;;;;;134.00;128.23;;;13.90;93.50;;;;;;5052269;28;20438;-73
2023/10/08 07:51:50;;;;;;;180.70;173.23;;;13.90;93.60;;;;;;5048299;28;20774;-73
2023/10/08 07:54:22;;;;;;;189.60;181.43;;;14.00;93.50;;;;;;5050001;28;20282;-73
2023/10/08 07:56:51;;;;;;;200.43;192.13;;;14.10;93.70;;;;;;5045053;28;20698;-73
2023/10/08 07:59:17;;;;;;;168.53;161.50;;;14.10;93.70;;;;;;5051897;28;20383;-73
2023/10/08 08:01:43;;;;;;;194.97;186.47;;;14.20;93.30;;;;;;5032827;28;20303;-73
2023/10/08 08:04:11;;;;;;;170.07;162.63;;;14.30;92.20;;;;;;5052907;28;20380;-73
2023/10/08 08:06:39;;;;;;;182.10;174.70;;;14.30;92.00;;;;;;5043559;28;20314;-73
2023/10/08 08:09:17;;;;;;;183.47;175.83;;;14.40;92.50;;;;;;5049188;28;20315;-73
2023/10/08 08:11:45;;;;;;;235.80;226.20;;;14.40;92.20;;;;;;5048796;28;20291;-73
2023/10/08 08:14:16;;;;;;;170.00;162.97;;;14.50;92.40;;;;;;5049627;28;20766;-74
2023/10/08 08:16:47;;;;;;;264.10;252.93;;;14.60;91.70;;;;;;5034299;28;20276;-73
2023/10/08 08:19:15;;;;;;;292.07;279.97;;;14.60;91.10;;;;;;5049375;28;20693;-73
2023/10/08 08:21:45;;;;;;;249.73;239.40;;;14.70;90.70;;;;;;5045577;28;20341;-73
2023/10/08 08:24:28;;;;;;;286.87;275.03;;;14.70;90.60;;;;;;5030245;28;20772;-73
2023/10/08 08:27:07;;;;;;;267.17;256.27;;;14.80;90.10;;;;;;5039267;28;20325;-74
2023/10/08 08:29:44;;;;;;;284.93;273.13;;;14.90;89.90;;;;;;5035604;28;20336;-73
2023/10/08 08:32:15;;;;;;;322.63;308.90;;;14.90;88.80;;;;;;5035441;28;20757;-73
2023/10/08 08:34:44;;;;;;;341.67;327.10;;;15.00;89.50;;;;;;5053168;28;20294;-73
2023/10/08 08:37:11;;;;;;;282.13;270.73;;;15.10;89.80;;;;;;5043728;28;20287;-73
2023/10/08 08:39:38;;;;;;;305.03;292.20;;;15.10;87.70;;;;;;5048835;28;20285;-73
2023/10/08 08:42:05;;;;;;;305.80;292.93;;;15.10;88.30;;;;;;5028377;28;20303;-73
2023/10/08 08:44:45;;;;;;;275.53;263.93;;;15.10;89.10;;;;;;5039303;28;20290;-73
2023/10/08 08:47:17;;;;;;;336.80;322.30;;;15.10;89.00;;;;;;5037528;28;20643;-73
2023/10/08 08:49:47;;;;;;;340.27;325.77;;;15.10;88.80;;;;;;5033280;28;20299;-73
2023/10/08 08:52:14;;;;;;;348.27;333.47;;;15.10;88.50;;;;;;5043625;28;20336;-73
2023/10/08 08:54:42;;;;;;;308.93;296.13;;;15.10;88.40;;;;;;5039849;28;20287;-73
2023/10/08 08:57:13;;;;;;;279.63;267.97;;;15.10;88.70;;;;;;5047775;28;20319;-73
2023/10/08 08:59:52;;;;;;;271.63;260.40;;;15.10;87.20;;;;;;5052977;28;20293;-73
2023/10/08 09:02:18;;;;;;;294.97;282.50;;;15.10;87.40;;;;;;5033797;28;20821;-73
2023/10/08 09:04:45;;;;;;;260.40;249.77;;;15.10;87.00;;;;;;5050495;28;20312;-73
2023/10/08 09:07:12;;;;;;;254.30;244.00;;;15.10;87.40;;;;;;5050587;28;20048;-73
2023/10/08 09:09:39;;;;;;;269.83;258.70;;;15.20;87.50;;;;;;5044996;28;20631;-73
2023/10/08 09:12:05;;;;;;;245.63;235.43;;;15.20;87.90;;;;;;5027631;28;20295;-73
2023/10/08 09:14:33;;;;;;;245.37;235.10;;;15.30;87.00;;;;;;5028608;28;20286;-73
2023/10/08 09:17:05;;;;;;;210.07;201.23;;;15.40;87.40;;;;;;5045214;28;20382;-72
2023/10/08 09:19:37;;;;;;;250.60;240.03;;;15.40;86.10;;;;;;5027911;28;20346;-72
2023/10/08 09:22:12;;;;;;;276.80;265.43;;;15.40;84.70;;;;;;5049067;28;20345;-72
2023/10/08 09:24:38;;;;;;;;;;;15.50;85.70;;;;;;5034737;28;20705;-73
2023/10/08 09:27:15;;;;;;;251.40;241.07;;;15.60;82.80;;;;;;5030016;28;19971;-72
2023/10/08 09:29:42;;;;;;;309.63;296.47;;;15.70;83.80;;;;;;5049480;28;20290;-72
2023/10/08 09:32:13;;;;;;;226.60;217.03;;;15.80;83.80;;;;;;5051521;28;20279;-72
2023/10/08 09:34:39;;;;;;;281.57;269.90;;;16.00;84.50;;;;;;5030645;28;20921;-72
2023/10/08 09:37:07;;;;;;;276.10;264.77;;;16.10;85.20;;;;;;5030330;28;20701;-72
2023/10/08 09:39:36;;;;;;;355.07;339.73;;;16.30;83.20;;;;;;5049160;28;20286;-72
2023/10/08 09:42:06;;;;;;;327.70;313.80;;;16.50;79.20;;;;;;5032771;28;20691;-72
2023/10/08 09:44:32;;;;;;;298.70;285.93;;;16.60;82.20;;;;;;5029730;28;20334;-72
2023/10/08 09:47:06;;;;;;;316.37;302.47;;;16.60;82.70;;;;;;5030318;28;20309;-72
2023/10/08 09:49:41;;;;;;;326.58;312.23;;;16.60;82.00;;;;;;5031445;28;20338;-72
2023/10/08 09:52:07;;;;;;;325.67;312.20;;;16.50;80.50;;;;;;5047729;28;20045;-72
2023/10/08 09:55:03;;;;;;;259.97;248.47;;;16.50;80.10;;;;;;5057575;28;20048;-72
2023/10/08 09:57:29;;;;;;;248.68;238.25;;;16.40;80.60;;;;;;5042832;28;20295;-72
2023/10/08 09:59:57;;;;;;;273.13;262.03;;;16.30;79.50;;;;;;5044042;28;20068;-72
2023/10/08 10:02:26;;;;;;;275.33;263.77;;;16.20;78.80;;;;;;5039372;28;20307;-72
2023/10/08 10:04:54;;;;;;;266.47;255.67;;;16.20;79.20;;;;;;5028031;28;20318;-72
2023/10/08 10:07:21;;;;;;;368.40;352.17;;;16.20;77.30;;;;;;5043338;28;20272;-72
2023/10/08 10:09:51;;;;;;;459.93;439.23;;;16.20;78.30;;;;;;5027138;28;20045;-72
2023/10/08 10:12:25;;;;;;;471.97;450.67;;;16.20;77.20;;;;;;5024146;28;20311;-72
2023/10/08 10:14:56;;;;;;;474.52;452.13;;;16.30;78.90;;;;;;5040901;28;20291;-72
2023/10/08 10:17:28;;;;;;;417.93;399.50;;;16.40;79.00;;;;;;5028163;28;20106;-72
2023/10/08 10:20:00;;;;;;;439.70;420.17;;;16.40;77.50;;;;;;5038026;28;20280;-72
2023/10/08 10:22:34;;;;;;;410.93;392.30;;;16.30;73.10;;;;;;5038461;28;20656;-72
2023/10/08 10:25:14;;;;;;;395.70;377.00;;;16.30;74.00;;;;;;5047188;28;20280;-72
2023/10/08 10:27:42;;;;;;;391.90;375.17;;;16.30;75.10;;;;;;5025488;28;20284;-72
2023/10/08 10:30:08;;;;;;;451.00;430.40;;;16.40;75.00;;;;;;5023222;28;20357;-72
2023/10/08 10:32:35;;;;;;;403.23;385.73;;;16.40;74.10;;;;;;5028382;28;20869;-72
2023/10/08 10:35:05;;;;;;;361.33;345.63;;;16.50;75.50;;;;;;5024892;28;20290;-72
2023/10/08 10:37:52;;;;;;;393.70;376.60;;;16.70;74.20;;;;;;5044117;28;20389;-74
2023/10/08 10:43:20;;;;;;;602.93;573.03;;;16.60;72.50;;;;;;5025179;28;20047;-74
2023/10/08 10:45:47;;;;;;;573.07;544.83;;;16.60;72.80;;;;;;5035161;28;20378;-74
2023/10/08 10:54:20;;;;;;;605.55;575.30;;;16.60;71.00;;;;;;5054721;28;20048;-73
2023/10/08 10:56:31;;;;;;;516.13;492.00;;;16.60;71.70;;;;;;5041935;28;20157;-74
2023/10/08 10:59:06;;;;;;;510.20;486.10;;;16.70;72.70;;;;;;5056738;28;20298;-74
2023/10/08 11:01:44;;;;;;;544.30;517.87;;;16.70;69.90;;;;;;5054126;28;20048;-73
2023/10/08 11:04:15;;;;;;;479.03;457.13;;;16.80;72.40;;;;;;5053602;28;20059;-74
2023/10/08 11:06:44;;;;;;;564.67;536.97;;;16.90;72.60;;;;;;5053946;28;20045;-73
2023/10/08 11:09:15;;;;;;;662.27;626.57;;;17.00;72.30;;;;;;5038769;28;20048;-74
2023/10/08 11:11:51;;;;;;;654.27;619.93;;;17.20;70.50;;;;;;5055093;28;20127;-73
2023/10/08 11:14:18;;;;;;;727.60;686.47;;;17.30;69.70;;;;;;5060769;28;20068;-74
2023/10/08 11:16:45;;;;;;;605.43;574.13;;;17.50;68.90;;;;;;5048281;28;20415;-74
2023/10/08 11:19:15;;;;;;;560.33;533.83;;;17.60;68.30;;;;;;5056582;28;20044;-73
2023/10/08 11:21:53;;;;;;;705.00;666.67;;;17.80;69.60;;;;;;5039767;28;20078;-73
2023/10/08 11:24:37;;;;;;;759.97;716.27;;;17.90;66.60;;;;;;5037982;28;20061;-73
2023/10/08 11:27:15;;;;;;;764.40;720.60;;;18.00;64.50;;;;;;5058658;28;20058;-73
2023/10/08 11:29:46;;;;;;;978.77;907.40;;;18.20;67.40;;;;;;5053392;28;20121;-73
2023/10/08 11:32:17;;;;;;;865.20;810.40;;;18.40;64.20;;;;;;5033941;28;20068;-74
2023/10/08 11:34:49;;;;;;;880.77;823.87;;;18.50;65.60;;;;;;5024129;28;20047;-74
2023/10/08 11:37:28;;;;;;;833.73;782.77;;;18.40;63.70;;;;;;5042499;28;20048;-75
2023/10/08 11:39:58;;;;;;;912.13;850.40;;;18.50;64.30;;;;;;5059560;28;20059;-74
2023/10/08 11:44:59;;;;;;;888.28;829.55;;;18.60;63.00;;;;;;5063336;28;20049;-74
2023/10/08 11:47:35;;;;;;;910.37;848.97;;;18.60;62.60;;;;;;5057744;28;20573;-74
2023/10/08 11:50:11;;;;;;;904.23;844.73;;;18.70;61.20;;;;;;5051710;28;20060;-73
2023/10/08 11:52:41;;;;;;;915.80;853.97;;;18.90;63.80;;;;;;5041073;28;20040;-74
2023/10/08 11:55:18;;;;;;;892.43;834.33;;;18.90;63.40;;;;;;5056662;28;20201;-73
2023/10/08 11:57:45;;;;;;;872.57;817.77;;;18.90;62.80;;;;;;5037531;28;20044;-73
2023/10/08 12:00:24;;;;;;;837.83;785.73;;;18.80;62.30;;;;;;5036340;28;20043;-73
2023/10/08 12:02:54;;;;;;;941.77;875.67;;;18.80;63.50;;;;;;5052654;28;20041;-74
2023/10/08 12:05:23;;;;;;;900.50;842.40;;;18.70;63.90;;;;;;5059997;28;20038;-73
2023/10/08 12:07:57;;;;;;;910.97;850.07;;;18.70;62.80;;;;;;5040174;28;20098;-74
2023/10/08 12:10:23;;;;;;;872.42;818.17;;;18.70;62.90;;;;;;5034478;28;20040;-74
2023/10/08 12:12:54;;;;;;;863.73;809.30;;;18.60;63.20;;;;;;5056824;28;20060;-74
2023/10/08 12:15:30;;;;;;;890.17;832.27;;;18.50;62.40;;;;;;5045555;28;20396;-74
2023/10/08 12:18:08;;;;;;;847.93;795.77;;;18.40;62.90;;;;;;5037425;28;20051;-74
2023/10/08 12:20:44;;;;;;;803.23;755.23;;;18.30;64.10;;;;;;5042037;28;20127;-74
2023/10/08 12:23:24;;;;;;;808.93;761.63;;;18.30;64.20;;;;;;5061731;28;20036;-73
2023/10/08 12:25:51;;;;;;;848.27;795.77;;;18.30;63.50;;;;;;5063631;28;20111;-74
2023/10/08 12:28:18;;;;;;;843.50;791.07;;;18.30;63.40;;;;;;5051989;28;20040;-73
2023/10/08 12:30:45;;;;;;;786.97;740.90;;;18.30;64.20;;;;;;5044754;28;20044;-73
2023/10/08 12:33:15;;;;;;;839.47;788.43;;;18.40;64.00;;;;;;5045011;28;20512;-73
2023/10/08 12:35:44;;;;;;;804.70;756.00;;;18.50;64.00;;;;;;5044986;28;20086;-73
2023/10/08 12:38:09;;;;;;;916.27;853.00;;;18.60;64.80;;;;;;5038646;28;20041;-74
2023/10/08 12:40:47;;;;;;;832.83;779.27;;;18.70;62.10;;;;;;5040604;28;20419;-73
2023/10/08 12:43:18;;;;;;;870.37;815.20;;;18.80;63.00;;;;;;5043226;28;20033;-73
2023/10/08 12:45:54;;;;;;;881.27;825.27;;;18.70;62.90;;;;;;5061131;28;20507;-74
2023/10/08 12:48:25;;;;;;;910.00;845.83;;;18.70;63.10;;;;;;5054727;28;20029;-73
2023/10/08 12:50:58;;;;;;;980.70;907.40;;;18.60;63.00;;;;;;5037110;28;20053;-73
2023/10/08 12:53:36;;;;;;;1021.80;940.90;;;18.70;63.70;;;;;;5037343;28;20037;-73
2023/10/08 12:56:06;;;;;;;1032.03;947.17;;;18.70;63.80;;;;;;5038967;28;20061;-73
2023/10/08 12:58:43;;;;;;;1070.90;980.30;;;18.80;63.70;;;;;;5031595;28;20041;-73
2023/10/08 13:01:10;;;;;;;1040.43;954.63;;;18.80;63.10;;;;;;5025384;28;20412;-73
2023/10/08 13:03:41;;;;;;;1038.40;952.87;;;18.80;63.00;;;;;;5038390;28;20040;-73
2023/10/08 13:06:11;;;;;;;1036.90;953.57;;;18.80;62.30;;;;;;5041700;28;20132;-73
2023/10/08 13:08:37;;;;;;;1042.43;956.77;;;18.70;62.80;;;;;;5013046;28;20041;-74
2023/10/08 13:11:03;;;;;;;1030.97;949.10;;;18.60;62.10;;;;;;5018722;28;20037;-73
2023/10/08 13:13:30;;;;;;;1032.43;949.40;;;18.50;63.40;;;;;;5037618;28;20103;-73
2023/10/08 13:15:58;;;;;;;1043.30;959.10;;;18.50;63.50;;;;;;5025544;28;20405;-73
2023/10/08 13:18:26;;;;;;;1026.00;945.73;;;18.50;64.10;;;;;;5032917;28;20072;-73
2023/10/08 13:20:52;;;;;;;1021.20;939.77;;;18.50;64.20;;;;;;5018260;28;20052;-73
2023/10/08 13:23:20;;;;;;;1007.73;928.87;;;18.40;63.90;;;;;;5014277;28;20038;-73
2023/10/08 13:25:53;;;;;;;992.00;917.43;;;18.40;64.40;;;;;;5038266;28;20049;-74
2023/10/08 13:28:21;;;;;;;982.10;910.53;;;18.30;64.60;;;;;;5018458;28;20049;-72
2023/10/08 13:30:47;;;;;;;969.83;898.47;;;18.30;65.30;;;;;;5020671;28;20041;-73
2023/10/08 13:33:12;;;;;;;923.53;861.07;;;18.20;65.80;;;;;;5034747;28;20041;-73
2023/10/08 13:35:38;;;;;;;957.77;889.67;;;18.10;65.60;;;;;;5018239;28;20041;-73
2023/10/08 13:38:09;;;;;;;948.70;882.43;;;18.00;65.70;;;;;;5031450;28;20040;-74